createdAt,value
2018-03-27T00:00:59.053Z,21.20
2018-03-27T00:03:26.549Z,19.83
2018-03-27T00:05:54.055Z,20.10
2018-03-27T00:08:21.593Z,22.03
2018-03-27T00:10:49.089Z,19.33
2018-03-27T00:13:16.746Z,19.03
2018-03-27T00:15:44.386Z,19.27
2018-03-27T00:18:12.039Z,17.97
2018-03-27T00:20:39.544Z,19.53
2018-03-27T00:23:07.341Z,18.40
2018-03-27T00:25:34.845Z,18.37
2018-03-27T00:28:08.219Z,18.67
2018-03-27T00:30:47.562Z,17.07
2018-03-27T00:33:26.713Z,17.97
2018-03-27T00:36:06.077Z,17.93
2018-03-27T00:38:45.757Z,17.23
2018-03-27T00:41:38.139Z,18.30
2018-03-27T00:44:05.790Z,16.77
2018-03-27T00:46:33.081Z,18.23
2018-03-27T00:49:00.558Z,18.73
2018-03-27T00:51:27.805Z,18.70
2018-03-27T00:53:55.358Z,17.03
2018-03-27T00:56:23.121Z,16.27
2018-03-27T00:58:50.622Z,17.67
2018-03-27T01:01:18.182Z,18.07
2018-03-27T01:03:45.837Z,17.97
2018-03-27T01:06:13.330Z,18.27
2018-03-27T01:08:40.948Z,17.53
2018-03-27T01:11:08.650Z,17.30
2018-03-27T01:13:36.219Z,17.60
2018-03-27T01:16:03.764Z,18.40
2018-03-27T01:18:31.416Z,17.90
2018-03-27T01:20:59.219Z,18.80
2018-03-27T01:23:26.873Z,18.10
2018-03-27T01:25:54.568Z,18.53
2018-03-27T01:28:22.061Z,18.03
2018-03-27T01:30:49.564Z,16.77
2018-03-27T01:33:17.643Z,16.67
2018-03-27T01:35:45.532Z,17.53
2018-03-27T01:38:13.185Z,16.37
2018-03-27T01:40:40.838Z,18.67
2018-03-27T01:43:08.330Z,16.43
2018-03-27T01:45:35.825Z,16.97
2018-03-27T01:48:03.456Z,16.40
2018-03-27T01:50:31.256Z,16.57
2018-03-27T01:52:58.749Z,17.03
2018-03-27T01:55:26.258Z,16.60
2018-03-27T01:57:53.757Z,17.60
2018-03-27T02:00:21.253Z,18.50
2018-03-27T02:02:48.978Z,16.70
2018-03-27T02:05:16.705Z,16.87
2018-03-27T02:07:44.631Z,17.87
2018-03-27T02:10:12.125Z,17.73
2018-03-27T02:12:45.296Z,17.90
2018-03-27T02:15:18.850Z,18.30
2018-03-27T02:17:52.109Z,16.63
2018-03-27T02:20:25.361Z,18.23
2018-03-27T02:22:56.901Z,17.57
2018-03-27T02:25:24.750Z,19.13
2018-03-27T02:27:52.454Z,16.80
2018-03-27T02:30:20.107Z,17.90
2018-03-27T02:32:47.780Z,17.47
2018-03-27T02:35:15.409Z,17.13
2018-03-27T02:37:43.442Z,17.97
2018-03-27T02:40:11.470Z,17.83
2018-03-27T02:42:39.158Z,18.03
2018-03-27T02:45:06.653Z,17.83
2018-03-27T02:47:34.155Z,17.70
2018-03-27T02:50:01.647Z,17.37
2018-03-27T02:52:29.380Z,18.53
2018-03-27T02:54:56.984Z,18.03
2018-03-27T02:57:24.638Z,19.23
2018-03-27T02:59:52.128Z,19.63
2018-03-27T03:02:19.640Z,19.47
2018-03-27T03:04:47.130Z,18.77
2018-03-27T03:07:14.694Z,18.97
2018-03-27T03:09:42.952Z,19.23
2018-03-27T03:12:10.561Z,19.43
2018-03-27T03:14:38.041Z,19.17
2018-03-27T03:17:06.067Z,19.20
2018-03-27T03:19:33.914Z,19.03
2018-03-27T03:22:01.763Z,20.90
2018-03-27T03:24:29.265Z,19.93
2018-03-27T03:26:56.746Z,20.77
2018-03-27T03:29:24.377Z,23.23
2018-03-27T03:31:51.985Z,22.67
2018-03-27T03:34:19.640Z,25.50
2018-03-27T03:36:47.159Z,26.53
2018-03-27T03:39:14.663Z,24.57
2018-03-27T03:41:42.450Z,27.77
2018-03-27T03:44:10.107Z,27.43
2018-03-27T03:46:37.647Z,25.50
2018-03-27T03:49:05.134Z,24.53
2018-03-27T03:51:32.621Z,26.93
2018-03-27T03:54:00.278Z,26.87
2018-03-27T03:56:27.973Z,27.07
2018-03-27T03:58:55.581Z,28.33
2018-03-27T04:01:23.188Z,28.60
2018-03-27T04:03:50.906Z,28.43
2018-03-27T04:06:18.541Z,29.23
2018-03-27T04:08:46.070Z,27.87
2018-03-27T04:11:13.557Z,28.00
2018-03-27T04:13:41.199Z,28.67
2018-03-27T04:16:08.713Z,29.27
2018-03-27T04:18:36.483Z,27.57
2018-03-27T04:21:04.254Z,29.93
2018-03-27T04:23:32.117Z,29.43
2018-03-27T04:25:59.622Z,29.80
2018-03-27T04:28:27.230Z,31.77
2018-03-27T04:30:54.718Z,29.20
2018-03-27T04:33:22.205Z,31.53
2018-03-27T04:35:49.796Z,28.93
2018-03-27T04:38:17.301Z,31.17
2018-03-27T04:40:44.810Z,30.50
2018-03-27T04:43:12.306Z,28.67
2018-03-27T04:45:40.073Z,30.30
2018-03-27T04:48:07.558Z,31.70
2018-03-27T04:50:35.325Z,30.60
2018-03-27T04:53:02.818Z,32.73
2018-03-27T04:55:30.306Z,31.30
2018-03-27T04:57:57.799Z,29.77
2018-03-27T05:00:25.545Z,30.53
2018-03-27T05:02:53.062Z,31.80
2018-03-27T05:05:20.903Z,31.10
2018-03-27T05:07:48.554Z,31.53
2018-03-27T05:10:16.206Z,30.67
2018-03-27T05:12:43.859Z,30.63
2018-03-27T05:15:11.659Z,31.13
2018-03-27T05:17:39.757Z,29.43
2018-03-27T05:20:07.343Z,30.40
2018-03-27T05:22:35.017Z,32.77
2018-03-27T05:25:02.722Z,30.53
2018-03-27T05:27:30.324Z,29.90
2018-03-27T05:29:58.025Z,31.03
2018-03-27T05:32:25.530Z,30.70
2018-03-27T05:34:53.132Z,32.57
2018-03-27T05:37:20.741Z,31.50
2018-03-27T05:39:48.270Z,32.73
2018-03-27T05:42:15.758Z,31.90
2018-03-27T05:44:43.285Z,31.67
2018-03-27T05:47:11.010Z,33.93
2018-03-27T05:49:39.057Z,30.83
2018-03-27T05:52:06.550Z,32.00
2018-03-27T05:54:34.032Z,33.63
2018-03-27T05:57:01.831Z,30.47
2018-03-27T05:59:29.334Z,31.47
2018-03-27T06:01:56.933Z,33.27
2018-03-27T06:04:24.425Z,33.43
2018-03-27T06:06:51.941Z,29.90
2018-03-27T06:09:19.468Z,32.23
2018-03-27T06:11:46.978Z,31.50
2018-03-27T06:14:14.557Z,33.33
2018-03-27T06:16:42.086Z,31.10
2018-03-27T06:19:09.588Z,33.27
2018-03-27T06:21:37.442Z,32.07
2018-03-27T06:24:04.966Z,31.00
2018-03-27T06:26:32.694Z,32.40
2018-03-27T06:29:00.281Z,31.27
2018-03-27T06:31:27.982Z,32.57
2018-03-27T06:33:55.637Z,31.67
2018-03-27T06:36:23.245Z,31.80
2018-03-27T06:38:50.945Z,33.83
2018-03-27T06:41:18.438Z,31.50
2018-03-27T06:43:45.950Z,32.97
2018-03-27T06:46:13.661Z,33.03
2018-03-27T06:48:41.173Z,33.03
2018-03-27T06:51:08.968Z,32.87
2018-03-27T06:53:36.675Z,34.27
2018-03-27T06:56:04.470Z,34.43
2018-03-27T06:58:32.123Z,33.93
2018-03-27T07:00:59.779Z,33.03
2018-03-27T07:03:27.457Z,36.40
2018-03-27T07:05:54.969Z,33.07
2018-03-27T07:08:22.468Z,34.17
2018-03-27T07:10:49.971Z,36.20
2018-03-27T07:13:17.653Z,33.77
2018-03-27T07:15:45.149Z,34.40
2018-03-27T07:18:12.808Z,35.50
2018-03-27T07:20:40.318Z,36.00
2018-03-27T07:23:07.893Z,35.73
2018-03-27T07:25:35.574Z,35.00
2018-03-27T07:28:03.076Z,33.53
2018-03-27T07:30:30.887Z,34.20
2018-03-27T07:32:58.734Z,33.83
2018-03-27T07:35:26.535Z,35.83
2018-03-27T07:37:54.188Z,36.37
2018-03-27T07:40:21.888Z,36.30
2018-03-27T07:42:49.542Z,35.07
2018-03-27T07:45:17.194Z,35.00
2018-03-27T07:47:44.694Z,35.80
2018-03-27T07:50:12.191Z,37.43
2018-03-27T07:52:40.107Z,36.80
2018-03-27T07:55:07.765Z,37.17
2018-03-27T07:57:35.466Z,37.23
2018-03-27T08:00:03.119Z,37.77
2018-03-27T08:02:30.773Z,38.40
2018-03-27T08:04:58.274Z,37.77
2018-03-27T08:07:25.770Z,38.83
2018-03-27T08:09:53.289Z,36.27
2018-03-27T08:12:20.945Z,35.70
2018-03-27T08:14:48.433Z,37.10
2018-03-27T08:17:15.914Z,38.77
2018-03-27T08:19:43.411Z,37.80
2018-03-27T08:22:10.931Z,38.87
2018-03-27T08:24:38.865Z,36.03
2018-03-27T08:27:06.389Z,36.60
2018-03-27T08:29:33.942Z,35.73
2018-03-27T08:32:01.450Z,34.70
2018-03-27T08:34:29.013Z,36.33
2018-03-27T08:36:56.516Z,37.13
2018-03-27T08:39:24.033Z,35.03
2018-03-27T08:41:51.803Z,33.73
2018-03-27T08:44:19.456Z,35.40
2018-03-27T08:46:46.954Z,33.70
2018-03-27T08:49:14.450Z,32.83
2018-03-27T08:51:41.953Z,34.10
2018-03-27T08:54:09.716Z,35.17
2018-03-27T08:56:37.197Z,35.23
2018-03-27T08:59:04.834Z,33.13
2018-03-27T09:01:32.578Z,33.70
2018-03-27T09:04:00.068Z,32.13
2018-03-27T09:06:27.565Z,32.30
2018-03-27T09:08:55.256Z,32.00
2018-03-27T09:11:22.765Z,30.90
2018-03-27T09:13:50.558Z,33.47
2018-03-27T09:16:18.210Z,30.00
2018-03-27T09:18:45.840Z,30.90
2018-03-27T09:21:13.341Z,30.97
2018-03-27T09:23:40.885Z,29.03
2018-03-27T09:26:08.522Z,30.17
2018-03-27T09:28:36.073Z,30.73
2018-03-27T09:31:03.576Z,30.97
2018-03-27T09:33:31.376Z,31.20
2018-03-27T09:35:58.882Z,30.57
2018-03-27T09:38:26.371Z,28.93
2018-03-27T09:40:54.111Z,31.70
2018-03-27T09:43:21.634Z,28.13
2018-03-27T09:45:49.129Z,28.60
2018-03-27T09:48:16.633Z,30.37
2018-03-27T09:50:44.329Z,28.47
2018-03-27T09:53:12.030Z,29.17
2018-03-27T09:55:39.686Z,28.97
2018-03-27T09:58:07.340Z,30.30
2018-03-27T10:00:40.646Z,26.93
2018-03-27T10:03:08.303Z,27.20
2018-03-27T10:05:36.347Z,27.30
2018-03-27T10:08:03.855Z,27.60
2018-03-27T10:10:31.354Z,28.20
2018-03-27T10:12:59.164Z,25.00
2018-03-27T10:15:26.813Z,25.50
2018-03-27T10:17:54.416Z,25.20
2018-03-27T10:20:22.081Z,25.13
2018-03-27T10:22:49.770Z,25.33
2018-03-27T10:25:17.376Z,24.00
2018-03-27T10:27:45.226Z,23.20
2018-03-27T10:30:12.722Z,22.40
2018-03-27T10:32:40.535Z,20.50
2018-03-27T10:35:08.029Z,21.07
2018-03-27T10:37:35.594Z,21.93
2018-03-27T10:40:03.299Z,20.83
2018-03-27T10:42:31.000Z,21.47
2018-03-27T10:44:58.497Z,22.83
2018-03-27T10:47:26.110Z,22.27
2018-03-27T10:49:53.612Z,21.87
2018-03-27T10:52:21.370Z,22.23
2018-03-27T10:54:48.861Z,20.87
2018-03-27T10:57:16.365Z,19.60
2018-03-27T10:59:43.988Z,20.13
2018-03-27T11:02:11.645Z,19.20
2018-03-27T11:04:39.442Z,20.50
2018-03-27T11:07:06.950Z,19.47
2018-03-27T11:09:34.946Z,20.17
2018-03-27T11:12:02.448Z,18.83
2018-03-27T11:14:30.106Z,18.70
2018-03-27T11:16:57.753Z,15.87
2018-03-27T11:19:25.320Z,15.60
2018-03-27T11:21:52.814Z,15.97
2018-03-27T11:24:20.311Z,15.00
2018-03-27T11:26:47.800Z,14.20
2018-03-27T11:29:15.472Z,16.80
2018-03-27T11:31:43.090Z,12.10
2018-03-27T11:34:10.582Z,11.07
2018-03-27T11:36:38.068Z,11.77
2018-03-27T11:39:05.854Z,12.83
2018-03-27T11:41:33.413Z,13.00
2018-03-27T11:44:00.900Z,12.30
2018-03-27T11:46:28.404Z,14.33
2018-03-27T11:48:56.159Z,11.37
2018-03-27T11:51:23.657Z,11.40
2018-03-27T11:53:51.212Z,12.57
2018-03-27T11:56:18.790Z,12.30
2018-03-27T11:58:46.286Z,11.37
2018-03-27T12:01:13.809Z,11.37
2018-03-27T12:03:41.395Z,11.57
2018-03-27T12:06:08.886Z,11.20
2018-03-27T12:08:36.378Z,11.60
2018-03-27T12:11:03.958Z,11.63
2018-03-27T12:13:31.496Z,11.37
2018-03-27T12:15:59.021Z,12.57
2018-03-27T12:18:26.517Z,10.60
2018-03-27T12:20:54.029Z,11.63
2018-03-27T12:23:21.536Z,10.47
2018-03-27T12:25:49.043Z,10.40
2018-03-27T12:28:16.542Z,12.10
2018-03-27T12:30:44.108Z,10.73
2018-03-27T12:33:11.613Z,10.40
2018-03-27T12:35:39.158Z,12.23
2018-03-27T12:38:06.693Z,12.03
2018-03-27T12:40:34.204Z,11.33
2018-03-27T12:43:01.729Z,11.37
2018-03-27T12:45:29.286Z,11.83
2018-03-27T12:47:56.778Z,12.67
2018-03-27T12:50:24.261Z,13.10
2018-03-27T12:52:51.805Z,14.40
2018-03-27T12:55:19.525Z,13.20
2018-03-27T12:57:47.033Z,14.70
2018-03-27T13:00:14.531Z,14.33
2018-03-27T13:02:42.044Z,15.63
2018-03-27T13:05:09.534Z,15.97
2018-03-27T13:07:37.043Z,15.83
2018-03-27T13:10:04.575Z,16.93
2018-03-27T13:12:32.074Z,15.47
2018-03-27T13:14:59.608Z,15.10
2018-03-27T13:17:27.861Z,14.03
2018-03-27T13:19:55.352Z,14.37
2018-03-27T13:22:22.902Z,12.37
2018-03-27T13:24:50.905Z,13.10
2018-03-27T13:27:18.396Z,13.70
2018-03-27T13:29:45.909Z,12.63
2018-03-27T13:32:13.511Z,13.63
2018-03-27T13:34:41.038Z,12.87
2018-03-27T13:37:08.537Z,12.93
2018-03-27T13:39:36.048Z,13.23
2018-03-27T13:42:03.582Z,12.87
2018-03-27T13:44:31.089Z,11.47
2018-03-27T13:46:58.587Z,12.57
2018-03-27T13:49:26.177Z,11.77
2018-03-27T13:51:53.665Z,13.00
2018-03-27T13:54:21.180Z,12.03
2018-03-27T13:56:48.699Z,11.93
2018-03-27T13:59:16.202Z,11.93
2018-03-27T14:01:43.710Z,11.30
2018-03-27T14:04:11.216Z,11.63
2018-03-27T14:06:38.966Z,11.07
2018-03-27T14:09:06.623Z,12.03
2018-03-27T14:11:34.421Z,12.23
2018-03-27T14:14:02.121Z,12.23
2018-03-27T14:16:29.629Z,11.77
2018-03-27T14:18:57.137Z,11.70
2018-03-27T14:21:24.674Z,11.77
2018-03-27T14:23:52.370Z,11.67
2018-03-27T14:26:20.144Z,11.13
2018-03-27T14:28:47.801Z,10.40
2018-03-27T14:31:15.497Z,9.20
2018-03-27T14:33:43.163Z,8.63
2018-03-27T14:36:10.702Z,8.00
2018-03-27T14:38:38.193Z,8.50
2018-03-27T14:41:05.707Z,8.03
2018-03-27T14:43:33.220Z,8.50
2018-03-27T14:46:00.702Z,9.67
2018-03-27T14:48:28.206Z,8.80
2018-03-27T14:50:55.695Z,8.43
2018-03-27T14:53:23.290Z,7.87
2018-03-27T14:55:50.830Z,8.50
2018-03-27T14:58:18.334Z,7.57
2018-03-27T15:00:45.846Z,8.43
2018-03-27T15:03:13.325Z,7.67
2018-03-27T15:05:40.820Z,8.43
2018-03-27T15:08:08.322Z,8.70
2018-03-27T15:10:35.824Z,10.37
2018-03-27T15:13:03.332Z,10.83
2018-03-27T15:15:30.834Z,9.70
2018-03-27T15:17:58.341Z,10.30
2018-03-27T15:20:25.833Z,10.33
2018-03-27T15:22:53.327Z,19.73
2018-03-27T15:25:20.904Z,9.00
2018-03-27T15:27:48.426Z,8.67
2018-03-27T15:30:15.930Z,9.97
2018-03-27T15:32:43.409Z,9.33
2018-03-27T15:35:10.978Z,9.67
2018-03-27T15:37:38.732Z,9.17
2018-03-27T15:40:06.265Z,10.40
2018-03-27T15:42:33.789Z,10.67
2018-03-27T15:45:01.286Z,13.00
2018-03-27T15:47:28.832Z,10.97
2018-03-27T15:49:56.336Z,11.20
2018-03-27T15:52:23.934Z,11.50
2018-03-27T15:54:51.606Z,12.23
2018-03-27T15:57:19.157Z,11.57
2018-03-27T15:59:46.847Z,12.17
2018-03-27T16:02:14.915Z,11.57
2018-03-27T16:04:42.440Z,12.07
2018-03-27T16:07:09.929Z,12.60
2018-03-27T16:09:37.461Z,11.50
2018-03-27T16:12:04.991Z,12.47
2018-03-27T16:14:32.481Z,12.67
2018-03-27T16:16:59.981Z,13.03
2018-03-27T16:19:27.486Z,11.77
2018-03-27T16:21:54.978Z,11.70
2018-03-27T16:24:22.536Z,11.73
2018-03-27T16:26:50.450Z,12.23
2018-03-27T16:29:18.300Z,11.90
2018-03-27T16:31:46.321Z,12.67
2018-03-27T16:34:14.293Z,11.93
2018-03-27T16:36:42.582Z,12.70
2018-03-27T16:39:10.975Z,13.17
2018-03-27T16:41:39.717Z,12.20
2018-03-27T16:44:08.551Z,12.10
2018-03-27T16:46:37.379Z,11.87
2018-03-27T16:49:06.406Z,13.20
2018-03-27T16:51:35.939Z,13.03
2018-03-27T16:54:04.662Z,13.63
2018-03-27T16:56:33.507Z,13.77
2018-03-27T16:59:02.046Z,14.03
2018-03-27T17:01:30.778Z,13.50
2018-03-27T17:03:59.308Z,12.67
2018-03-27T17:06:27.753Z,13.33
2018-03-27T17:08:56.676Z,14.57
2018-03-27T17:11:25.708Z,13.30
2018-03-27T17:13:54.545Z,13.07
2018-03-27T17:16:22.406Z,13.37
2018-03-27T17:18:50.314Z,13.73
2018-03-27T17:21:19.470Z,12.60
2018-03-27T17:23:48.310Z,13.47
2018-03-27T17:26:16.846Z,14.30
2018-03-27T17:28:45.771Z,15.13
2018-03-27T17:31:14.413Z,14.27
2018-03-27T17:33:43.247Z,13.70
2018-03-27T17:36:12.668Z,13.10
2018-03-27T17:38:40.712Z,13.63
2018-03-27T17:41:09.565Z,14.10
2018-03-27T17:43:38.574Z,14.87
2018-03-27T17:46:07.412Z,14.10
2018-03-27T17:48:36.044Z,14.53
2018-03-27T17:51:04.882Z,16.27
2018-03-27T17:53:32.729Z,15.03
2018-03-27T17:56:00.573Z,15.47
2018-03-27T17:58:29.412Z,15.70
2018-03-27T18:00:57.308Z,14.23
2018-03-27T18:03:26.697Z,15.77
2018-03-27T18:05:55.524Z,14.57
2018-03-27T18:08:24.562Z,15.00
2018-03-27T18:10:53.388Z,16.20
2018-03-27T18:13:21.239Z,16.10
2018-03-27T18:15:49.065Z,15.40
2018-03-27T18:18:16.900Z,14.90
2018-03-27T18:20:44.766Z,14.13
2018-03-27T18:23:13.633Z,14.90
2018-03-27T18:25:42.642Z,19.90
2018-03-27T18:28:11.474Z,19.77
2018-03-27T18:30:40.308Z,19.83
2018-03-27T18:33:09.736Z,19.17
2018-03-27T18:35:38.177Z,17.90
2018-03-27T18:38:06.808Z,17.70
2018-03-27T18:40:35.517Z,17.23
2018-03-27T18:43:04.007Z,16.17
2018-03-27T18:45:32.921Z,19.27
2018-03-27T18:48:01.950Z,18.97
2018-03-27T18:50:31.572Z,16.00
2018-03-27T18:53:00.203Z,17.33
2018-03-27T18:55:29.235Z,18.23
2018-03-27T18:57:57.646Z,17.87
2018-03-27T19:00:26.349Z,17.23
2018-03-27T19:02:55.139Z,16.23
2018-03-27T19:05:24.169Z,16.60
2018-03-27T19:07:52.811Z,17.40
2018-03-27T19:10:21.677Z,16.73
2018-03-27T19:12:50.471Z,18.17
2018-03-27T19:15:19.113Z,16.13
2018-03-27T19:17:47.950Z,16.40
2018-03-27T19:20:17.265Z,16.17
2018-03-27T19:22:46.025Z,16.23
2018-03-27T19:25:14.752Z,17.33
2018-03-27T19:27:43.470Z,15.97
2018-03-27T19:30:12.308Z,16.00
2018-03-27T19:32:40.846Z,17.67
2018-03-27T19:35:09.970Z,16.03
2018-03-27T19:37:38.813Z,15.27
2018-03-27T19:40:07.456Z,17.63
2018-03-27T19:42:36.867Z,16.50
2018-03-27T19:45:05.893Z,17.83
2018-03-27T19:47:34.922Z,20.00
2018-03-27T19:50:03.963Z,16.80
2018-03-27T19:52:32.602Z,14.67
2018-03-27T19:55:01.337Z,15.17
2018-03-27T19:57:31.237Z,15.30
2018-03-27T20:00:00.087Z,14.60
2018-03-27T20:02:28.711Z,15.93
2018-03-27T20:04:57.359Z,14.27
2018-03-27T20:07:26.573Z,15.47
2018-03-27T20:09:55.405Z,16.33
2018-03-27T20:12:24.246Z,15.00
2018-03-27T20:14:52.783Z,15.57
2018-03-27T20:17:21.233Z,15.27
2018-03-27T20:19:50.146Z,14.17
2018-03-27T20:22:18.989Z,15.97
2018-03-27T20:24:47.823Z,15.73
2018-03-27T20:27:16.650Z,14.77
2018-03-27T20:29:45.502Z,15.27
2018-03-27T20:32:14.517Z,16.30
2018-03-27T20:34:43.348Z,15.43
2018-03-27T20:37:13.552Z,16.57
2018-03-27T20:39:42.581Z,16.63
2018-03-27T20:42:11.420Z,14.83
2018-03-27T20:44:39.606Z,15.87
2018-03-27T20:47:08.892Z,16.43
2018-03-27T20:49:37.914Z,15.67
2018-03-27T20:52:06.958Z,17.97
2018-03-27T20:54:35.786Z,16.90
2018-03-27T20:57:04.419Z,17.07
2018-03-27T20:59:33.447Z,16.33
2018-03-27T21:02:02.292Z,17.07
2018-03-27T21:04:31.320Z,15.83
2018-03-27T21:07:00.336Z,16.93
2018-03-27T21:09:29.171Z,17.57
2018-03-27T21:11:58.395Z,17.87
2018-03-27T21:14:27.232Z,16.07
2018-03-27T21:16:56.063Z,16.83
2018-03-27T21:19:24.901Z,15.63
2018-03-27T21:21:53.733Z,17.03
2018-03-27T21:24:22.758Z,16.47
2018-03-27T21:26:51.599Z,16.27
2018-03-27T21:29:20.231Z,17.33
2018-03-27T21:31:48.387Z,16.53
2018-03-27T21:34:16.518Z,17.30
2018-03-27T21:36:44.277Z,16.43
2018-03-27T21:39:12.021Z,17.63
2018-03-27T21:41:39.721Z,17.37
2018-03-27T21:44:07.328Z,17.33
2018-03-27T21:46:35.048Z,17.33
2018-03-27T21:49:02.540Z,17.43
2018-03-27T21:51:30.073Z,18.23
2018-03-27T21:53:57.793Z,16.47
2018-03-27T21:56:25.289Z,15.70
2018-03-27T21:58:52.785Z,16.87
2018-03-27T22:01:20.356Z,16.53
2018-03-27T22:03:47.907Z,18.07
2018-03-27T22:06:30.939Z,15.77
2018-03-27T22:08:58.660Z,15.90
2018-03-27T22:11:26.176Z,18.07
2018-03-27T22:13:53.672Z,15.03
2018-03-27T22:16:21.418Z,13.60
2018-03-27T22:18:49.073Z,13.90
2018-03-27T22:21:17.073Z,14.77
2018-03-27T22:23:44.904Z,15.67
2018-03-27T22:26:12.575Z,13.53
2018-03-27T22:28:40.278Z,13.60
2018-03-27T22:31:07.929Z,14.67
2018-03-27T22:33:35.584Z,13.13
2018-03-27T22:36:03.104Z,13.77
2018-03-27T22:38:31.040Z,13.27
2018-03-27T22:40:58.889Z,13.27
2018-03-27T22:43:26.595Z,13.97
2018-03-27T22:45:54.240Z,13.70
2018-03-27T22:48:21.898Z,12.87
2018-03-27T22:50:49.550Z,12.60
2018-03-27T22:53:17.158Z,13.77
2018-03-27T22:55:44.697Z,11.93
2018-03-27T22:58:12.184Z,12.67
2018-03-27T23:00:40.132Z,12.90
2018-03-27T23:03:07.772Z,13.87
2018-03-27T23:05:35.261Z,12.47
2018-03-27T23:08:02.880Z,11.67
2018-03-27T23:10:30.370Z,11.43
2018-03-27T23:12:58.234Z,12.43
2018-03-27T23:15:25.726Z,12.43
2018-03-27T23:17:53.218Z,12.20
2018-03-27T23:20:20.761Z,12.50
2018-03-27T23:22:48.250Z,13.90
2018-03-27T23:25:15.774Z,12.97
2018-03-27T23:27:43.325Z,13.70
2018-03-27T23:30:10.822Z,12.97
2018-03-27T23:32:38.333Z,13.63
2018-03-27T23:35:05.924Z,13.33
2018-03-27T23:37:33.422Z,12.30
2018-03-27T23:40:01.049Z,13.60
2018-03-27T23:42:28.710Z,13.67
2018-03-27T23:44:56.352Z,13.93
2018-03-27T23:47:23.867Z,13.40
2018-03-27T23:49:51.665Z,12.17
2018-03-27T23:52:19.197Z,13.57
2018-03-27T23:54:46.925Z,13.43
2018-03-27T23:57:14.414Z,14.13
2018-03-27T23:59:41.956Z,14.77
